BGGHBGSF

Guest
Details From BGGH - Nuuk
To BGSF - Kangerlussuaq
Flight Number -
Tags generated
Created
Modified
Stats Distance 171 nm / 317 km
Max Altitude 19,300 ft / 5,883 m
Waypoints 3
Social Downloads 1
Likes 0
Share VATSIM

Download

Looking for another format? Having issues loading an existing format? Contact us
Advertisement - Login to hide

Notes

Basic altitude profile: - Ascent Rate: 2500ft/min - Ascent Speed: 250kts - Cruise Altitude: 35000ft - Cruise Speed: 420kts - Descent Rate: 1500ft/min - Descent Speed: 250kts Options: - Use NATs: yes - Use PACOTS: yes - Use low airways: yes - Use high airways: yes

Route

BGGH ROSIE BGSF

ID Type Via Altitude (ft/m) Position (lat/lon) Dist (leg/tot) Name
O BGGH APT - 0 / 0 64.19302 / -51.67645 - / 0 nm Nuuk
ROSIE FIX - 19,300 / 5,883 65.53917 / -51.46611 81 / 81 nm
O BGSF APT - 0 / 0 67.01160 / -50.71472 90 / 171 nm Kangerlussuaq

Altitude Profile

Advertisement - Login to hide

Weather


0- 5 10 15 20 25 30 35+ Temperature / °C

Clouds and Precipitation
Forecast for 2018-12-17 12:00 UTC. Updated an hour ago

Ground ~20,000 ft ~40,000 ft Winds

BGGH

Details ICAO BGGH (GOH)
Name Nuuk - Godthab
Region Greenland
Timezone America/Godthab (UTC-3.0)
Stats Elevation 283 ft / 86 m (AMSL)
Location 64.190900° -51.678100°
Runways 1
Magnetic Variation 26.657° W

METAR

BGGH 170950Z 33012KT 9999 BKN013 M07/M09 Q1000

Decode

TAF

Not found

Departure Runways

ID Width Length Bearing (true/mag) Surface Threshold Overrun Markings Lighting
05 98 ft / 30 m 3,120 ft / 951 m 19.56° / 46.21° CONCRETE 0 ft / 0 m 0 ft / 0 m APP EDGE THRESHOLD
23 98 ft / 30 m 3,120 ft / 951 m 199.56° / 226.22° CONCRETE 0 ft / 0 m 0 ft / 0 m APP EDGE THRESHOLD MALSR

BGSF

Details ICAO BGSF (SFJ)
Name Kangerlussuaq
Region Greenland
Timezone America/Godthab (UTC-3.0)
Stats Elevation 165 ft / 50 m (AMSL)
Location 67.017000° -50.689300°
Runways 1
Magnetic Variation 28.624° W

METAR

BGSF 170950Z AUTO 06003KT 2500NDV -SN SCT019/// OVC022/// M13/M14 Q1003

Decode

TAF

Not found

Destination Runways

ID Width Length Bearing (true/mag) Surface Threshold Overrun Markings Lighting
10 197 ft / 60 m 9,171 ft / 2,795 m 61.58° / 90.20° ASPHALT 0 ft / 0 m 489 ft / 149 m PREC-APP EDGE THRESHOLD SSALR REIL-OMNI
28 197 ft / 60 m 9,171 ft / 2,795 m 241.63° / 270.26° ASPHALT 0 ft / 0 m 164 ft / 50 m PREC-APP EDGE THRESHOLD SSALF TDZ REIL-OMNI

Approach Navaids

Runway Type Ident Frequency Range Bearing (true/mag) Slope Elevation
10 LOC-LOC ISF 109.55 MHz 18 nm / 33 km 61.60° / 90.22 ° - 165 ft / 50 m (AMSL)
10 DME ISF 109.55 MHz 18 nm / 33 km - - 172 ft / 52 m (AMSL)

Popular Alternatives